Time;durP1;ratioP1;P1;durP2;ratioP2;P2;SDS_P1;SDS_P2;PMS_P1;PMS_P2;Temp;Humidity;BMP_temperature;BMP_pressure;BME280_temperature;BME280_humidity;BME280_pressure;Samples;Min_cycle;Max_cycle;Signal;HPM_P1;HPM_P2
2023/04/30 00:00:01;;;;;;;13.67;6.77;;;;;;;15.35;49.86;94318.56;5131224;27;20199;-48
2023/04/30 00:02:28;;;;;;;10.17;6.00;;;;;;;15.29;50.08;94323.44;5130063;27;20660;-49
2023/04/30 00:04:54;;;;;;;10.03;6.90;;;;;;;15.30;50.27;94325.03;5131127;27;20589;-49
2023/04/30 00:07:21;;;;;;;9.73;6.37;;;;;;;15.27;50.24;94325.38;5130273;27;20196;-50
2023/04/30 00:09:50;;;;;;;7.53;5.97;;;;;;;15.23;50.27;94325.91;5130510;27;20307;-50
2023/04/30 00:12:16;;;;;;;8.40;6.30;;;;;;;15.19;50.17;94327.22;5130264;27;20187;-50
2023/04/30 00:14:43;;;;;;;9.47;5.73;;;;;;;15.18;50.53;94320.50;5130231;27;20184;-50
2023/04/30 00:17:10;;;;;;;10.00;6.40;;;;;;;15.15;50.65;94324.19;5130271;27;20196;-49
2023/04/30 00:19:37;;;;;;;6.80;5.90;;;;;;;15.11;50.59;94325.56;5129379;27;20244;-49
2023/04/30 00:22:04;;;;;;;7.93;6.40;;;;;;;15.06;50.66;94312.38;5130360;27;20184;-49
2023/04/30 00:24:31;;;;;;;7.57;5.83;;;;;;;15.01;50.97;94309.53;5130149;27;20619;-49
2023/04/30 00:26:59;;;;;;;11.17;6.50;;;;;;;15.02;51.19;94318.84;5130118;27;20192;-51
2023/04/30 00:29:26;;;;;;;9.40;6.70;;;;;;;15.00;50.96;94323.38;5130361;27;20216;-52
2023/04/30 00:31:52;;;;;;;11.37;6.43;;;;;;;14.96;50.93;94315.19;5130082;27;20192;-50
2023/04/30 00:34:19;;;;;;;9.20;5.40;;;;;;;14.94;51.22;94316.34;5130347;27;20184;-50
2023/04/30 00:36:46;;;;;;;9.27;5.87;;;;;;;14.89;51.26;94322.00;5130112;27;20177;-51
2023/04/30 00:39:13;;;;;;;11.67;6.37;;;;;;;14.88;51.30;94323.00;5130501;27;20184;-50
2023/04/30 00:41:40;;;;;;;10.83;5.77;;;;;;;14.85;51.59;94319.94;5130419;27;20188;-49
2023/04/30 00:44:08;;;;;;;8.47;6.13;;;;;;;14.82;51.44;94320.31;5130029;27;20192;-49
2023/04/30 00:46:35;;;;;;;9.53;5.87;;;;;;;14.80;51.54;94316.13;5129819;28;20195;-48
2023/04/30 00:49:03;;;;;;;8.73;5.87;;;;;;;14.77;51.75;94313.13;5129979;28;20184;-49
2023/04/30 00:51:32;;;;;;;8.53;5.80;;;;;;;14.74;51.63;94308.31;5130316;28;20188;-50
2023/04/30 00:54:01;;;;;;;9.90;6.50;;;;;;;14.70;51.94;94310.41;5130384;28;20192;-49
2023/04/30 00:56:29;;;;;;;10.27;5.80;;;;;;;14.69;51.99;94311.41;5131429;28;20184;-49
2023/04/30 00:58:56;;;;;;;8.00;6.07;;;;;;;14.67;52.09;94320.25;5130453;28;20189;-49
2023/04/30 01:01:25;;;;;;;8.67;6.07;;;;;;;14.65;52.14;94304.19;5130093;28;20188;-50
2023/04/30 01:03:52;;;;;;;9.87;5.80;;;;;;;14.62;52.20;94307.91;5129824;28;20188;-48
2023/04/30 01:06:19;;;;;;;9.57;5.37;;;;;;;14.58;52.24;94305.84;5129890;28;20588;-49
2023/04/30 01:08:46;;;;;;;8.40;5.63;;;;;;;14.54;52.22;94302.81;5129632;27;20184;-49
2023/04/30 01:11:21;;;;;;;7.27;5.53;;;;;;;14.54;52.21;94311.31;5130231;28;20239;-50
2023/04/30 01:13:56;;;;;;;8.93;5.17;;;;;;;14.53;52.42;94308.94;5129650;28;20218;-50
2023/04/30 01:16:28;;;;;;;9.07;5.63;;;;;;;14.49;52.53;94308.47;5129860;28;20570;-50
2023/04/30 01:18:59;;;;;;;8.90;5.57;;;;;;;14.46;52.54;94302.81;5129451;28;20192;-50
2023/04/30 01:21:31;;;;;;;7.37;5.57;;;;;;;14.45;52.25;94309.75;5129689;28;20649;-49
2023/04/30 01:24:24;;;;;;;8.30;5.80;;;;;;;14.44;52.50;94309.94;5129333;28;20224;-50
2023/04/30 01:27:06;;;;;;;7.17;5.47;;;;;;;14.41;52.52;94305.09;5129505;27;20176;-50
2023/04/30 01:29:36;;;;;;;14.23;6.07;;;;;;;14.38;52.67;94306.28;5129677;28;20247;-50
2023/04/30 01:32:03;;;;;;;7.97;5.37;;;;;;;14.35;52.90;94303.22;5132768;27;20183;-49
2023/04/30 01:34:30;;;;;;;6.20;4.60;;;;;;;14.31;52.70;94300.19;5133255;27;20649;-50
2023/04/30 01:37:08;;;;;;;8.50;5.20;;;;;;;14.24;52.83;94296.69;5133387;27;20192;-49
2023/04/30 01:39:56;;;;;;;7.13;5.53;;;;;;;14.31;53.01;94313.06;5133720;27;20184;-50
2023/04/30 01:42:28;;;;;;;7.07;5.07;;;;;;;14.17;52.89;94303.50;5133317;27;20585;-49
2023/04/30 01:45:18;;;;;;;6.10;4.83;;;;;;;14.27;52.96;94306.66;5133481;27;20241;-49
2023/04/30 01:47:52;;;;;;;7.53;5.60;;;;;;;14.26;53.11;94317.91;5116504;27;20211;-50
2023/04/30 01:50:28;;;;;;;6.53;5.17;;;;;;;14.25;53.12;94314.53;5135215;27;20281;-50
2023/04/30 01:52:58;;;;;;;8.23;5.03;;;;;;;14.25;53.20;94318.88;5133327;27;20645;-50
2023/04/30 01:55:32;;;;;;;7.07;5.30;;;;;;;14.26;53.09;94315.34;5133460;27;20261;-49
2023/04/30 01:58:01;;;;;;;7.53;5.17;;;;;;;14.26;53.07;94316.13;5133396;27;20177;-49
2023/04/30 02:00:30;;;;;;;6.17;4.90;;;;;;;14.27;53.18;94314.38;5133087;27;20611;-49
2023/04/30 02:02:57;;;;;;;8.20;5.47;;;;;;;14.22;53.26;94306.34;5133190;27;20231;-49
2023/04/30 02:05:24;;;;;;;5.70;4.90;;;;;;;14.28;53.09;94314.19;5133573;27;20188;-50
2023/04/30 02:07:52;;;;;;;10.00;5.50;;;;;;;14.29;53.19;94312.41;5133072;27;20279;-50
2023/04/30 02:10:22;;;;;;;6.57;4.83;;;;;;;14.26;53.25;94312.75;5132839;27;20241;-49
2023/04/30 02:12:49;;;;;;;8.60;5.80;;;;;;;14.32;53.11;94312.88;5132553;27;20298;-50
2023/04/30 02:15:16;;;;;;;6.23;4.67;;;;;;;14.33;53.19;94311.09;5133214;27;20583;-48
2023/04/30 02:17:44;;;;;;;8.63;5.37;;;;;;;14.34;53.05;94315.31;5132500;27;20189;-50
2023/04/30 02:20:12;;;;;;;5.07;4.57;;;;;;;14.21;53.24;94297.84;5132971;27;20188;-50
2023/04/30 02:22:39;;;;;;;5.87;4.93;;;;;;;14.24;53.37;94306.97;5132632;27;20191;-50
2023/04/30 02:25:06;;;;;;;7.30;5.10;;;;;;;14.30;53.61;94306.31;5132284;27;20616;-50
2023/04/30 02:27:34;;;;;;;6.80;5.57;;;;;;;14.08;53.49;94274.47;5132303;27;20193;-48
2023/04/30 02:30:01;;;;;;;7.77;4.80;;;;;;;14.04;53.78;94270.63;5132722;27;20212;-49
2023/04/30 02:32:28;;;;;;;5.97;4.70;;;;;;;14.06;53.63;94271.25;5132619;27;20192;-49
2023/04/30 02:34:56;;;;;;;7.10;5.53;;;;;;;14.24;53.62;94304.41;5132537;27;20295;-49
2023/04/30 02:37:23;;;;;;;6.90;5.00;;;;;;;14.27;53.57;94309.22;5132233;27;20215;-48
2023/04/30 02:39:51;;;;;;;7.40;5.30;;;;;;;14.21;53.63;94292.69;5132236;27;20192;-50
2023/04/30 02:42:17;;;;;;;6.73;4.63;;;;;;;14.28;53.59;94301.31;5131431;27;20298;-49
2023/04/30 02:44:44;;;;;;;6.07;4.60;;;;;;;14.31;53.80;94302.78;5132000;27;20572;-50
2023/04/30 02:47:11;;;;;;;7.53;4.93;;;;;;;14.32;53.93;94315.44;5132512;27;20245;-49
2023/04/30 02:49:38;;;;;;;7.43;4.70;;;;;;;14.35;53.85;94313.53;5132904;27;20192;-48
2023/04/30 02:52:08;;;;;;;6.97;5.37;;;;;;;14.36;53.71;94310.78;5133275;27;20274;-50
2023/04/30 02:54:35;;;;;;;5.93;4.60;;;;;;;14.27;53.67;94296.34;5131746;27;20666;-50
2023/04/30 02:57:01;;;;;;;7.03;4.73;;;;;;;14.39;53.84;94317.34;5132289;27;20188;-48
2023/04/30 02:59:28;;;;;;;6.03;4.80;;;;;;;14.42;54.00;94320.41;5132236;27;20199;-50
2023/04/30 03:01:55;;;;;;;6.33;5.10;;;;;;;14.44;53.59;94320.22;5131794;27;20188;-49
2023/04/30 03:04:22;;;;;;;6.53;5.30;;;;;;;14.38;53.66;94305.44;5131564;27;20617;-50
2023/04/30 03:06:48;;;;;;;6.83;4.50;;;;;;;14.37;53.68;94303.84;5131713;27;20257;-48
2023/04/30 03:09:17;;;;;;;5.07;4.57;;;;;;;14.45;53.79;94319.25;5131382;27;20189;-49
2023/04/30 03:11:43;;;;;;;5.03;4.37;;;;;;;14.48;53.73;94324.06;5131752;27;20223;-48
2023/04/30 03:14:10;;;;;;;5.23;4.50;;;;;;;14.47;53.54;94314.75;5131710;27;20203;-48
2023/04/30 03:16:37;;;;;;;7.33;4.83;;;;;;;14.51;53.53;94326.31;5131427;27;20184;-50
2023/04/30 03:19:04;;;;;;;7.93;5.20;;;;;;;14.52;53.81;94326.16;5131486;27;20185;-50
2023/04/30 03:21:31;;;;;;;6.70;4.50;;;;;;;14.51;53.74;94326.31;5131438;27;20180;-49
2023/04/30 03:23:58;;;;;;;6.80;5.00;;;;;;;14.54;53.76;94337.06;5131127;27;20232;-49
2023/04/30 03:26:26;;;;;;;8.60;5.20;;;;;;;14.50;53.70;94324.69;5131291;27;20192;-49
2023/04/30 03:28:54;;;;;;;6.47;4.47;;;;;;;14.57;53.77;94335.91;5131275;27;20191;-49
2023/04/30 03:31:21;;;;;;;6.97;5.10;;;;;;;14.59;53.94;94330.59;5131074;27;20718;-51
2023/04/30 03:33:48;;;;;;;7.33;5.40;;;;;;;14.60;53.75;94332.22;5131186;27;20729;-50
2023/04/30 03:36:14;;;;;;;6.57;4.90;;;;;;;14.60;53.64;94334.78;5131188;27;20305;-49
2023/04/30 03:38:41;;;;;;;6.80;5.30;;;;;;;14.62;53.71;94338.78;5131119;27;20251;-50
2023/04/30 03:41:08;;;;;;;6.83;4.43;;;;;;;14.64;53.78;94341.19;5131186;27;20283;-49
2023/04/30 03:43:36;;;;;;;9.57;5.80;;;;;;;14.67;53.87;94343.41;5131355;27;20211;-49
2023/04/30 03:46:03;;;;;;;6.40;4.97;;;;;;;14.68;53.62;94348.41;5130905;27;20192;-50
2023/04/30 03:48:30;;;;;;;7.53;5.10;;;;;;;14.71;53.77;94352.41;5132203;27;20276;-49
2023/04/30 03:50:57;;;;;;;8.77;5.53;;;;;;;14.73;53.77;94356.41;5130878;27;20219;-48
2023/04/30 03:53:24;;;;;;;8.57;5.80;;;;;;;14.75;53.64;94359.59;5130454;27;20195;-48
2023/04/30 03:55:51;;;;;;;5.83;4.80;;;;;;;14.79;53.71;94360.06;5131012;27;20208;-49
2023/04/30 03:58:18;;;;;;;6.10;5.00;;;;;;;14.81;53.76;94363.28;5130732;27;20196;-50
2023/04/30 04:00:47;;;;;;;8.40;5.37;;;;;;;14.83;53.63;94361.31;5130920;27;20219;-50
2023/04/30 04:03:14;;;;;;;9.07;5.57;;;;;;;14.85;53.71;94358.56;5130612;27;20605;-50
2023/04/30 04:05:41;;;;;;;6.83;5.07;;;;;;;14.90;53.53;94358.88;5131077;27;20223;-50
2023/04/30 04:08:08;;;;;;;6.03;5.20;;;;;;;14.94;53.62;94365.25;5131471;27;20184;-50
2023/04/30 04:10:35;;;;;;;6.97;4.93;;;;;;;14.90;53.60;94354.53;5132039;27;20235;-49
2023/04/30 04:13:02;;;;;;;8.50;5.23;;;;;;;14.99;53.37;94363.78;5130315;27;20192;-49
2023/04/30 04:15:28;;;;;;;8.20;5.00;;;;;;;15.06;53.38;94369.81;5130737;27;20241;-50
2023/04/30 04:17:57;;;;;;;8.27;5.80;;;;;;;15.12;53.55;94367.56;5130387;27;20584;-48
2023/04/30 04:20:23;;;;;;;9.23;5.50;;;;;;;15.23;53.30;94365.34;5130620;27;20192;-49
2023/04/30 04:22:50;;;;;;;9.53;5.80;;;;;;;15.25;53.10;94354.88;5130211;27;20272;-51
2023/04/30 04:25:18;;;;;;;8.63;5.83;;;;;;;15.47;52.77;94373.84;5130292;27;20311;-50
2023/04/30 04:27:44;;;;;;;20.57;5.57;;;;;;;15.56;52.66;94372.78;5130213;27;20198;-50
2023/04/30 04:30:12;;;;;;;9.03;5.40;;;;;;;15.64;52.56;94372.75;5130414;27;20180;-49
2023/04/30 04:32:48;;;;;;;9.37;5.90;;;;;;;15.71;52.49;94383.94;5130510;27;20271;-50
2023/04/30 04:35:17;;;;;;;8.03;5.87;;;;;;;15.78;52.35;94373.72;5129990;27;20192;-49
2023/04/30 04:37:45;;;;;;;9.57;6.10;;;;;;;15.83;52.23;94370.63;5130242;27;20235;-49
2023/04/30 04:40:12;;;;;;;13.17;6.30;;;;;;;15.89;52.19;94375.06;5130041;27;20214;-49
2023/04/30 04:42:40;;;;;;;8.90;6.03;;;;;;;16.00;52.05;94385.75;5130502;27;20187;-49
2023/04/30 04:45:08;;;;;;;9.30;5.57;;;;;;;16.07;52.00;94379.88;5130064;27;20210;-50
2023/04/30 04:47:36;;;;;;;10.00;6.37;;;;;;;16.12;52.01;94385.28;5129178;28;20285;-51
2023/04/30 04:50:03;;;;;;;11.30;6.40;;;;;;;16.16;51.93;94382.19;5129886;28;20261;-51
2023/04/30 04:52:31;;;;;;;11.60;6.57;;;;;;;16.17;51.96;94385.56;5130602;28;20630;-50
2023/04/30 04:54:58;;;;;;;8.50;6.00;;;;;;;16.20;51.82;94387.78;5130088;28;20221;-51
2023/04/30 04:57:25;;;;;;;7.47;5.50;;;;;;;16.25;51.83;94394.00;5130359;28;20184;-49
2023/04/30 04:59:52;;;;;;;8.97;6.57;;;;;;;16.29;51.93;94395.25;5130060;28;20181;-50
2023/04/30 05:02:20;;;;;;;8.70;6.40;;;;;;;16.31;51.72;94398.44;5130012;28;20184;-49
2023/04/30 05:04:49;;;;;;;7.80;5.97;;;;;;;16.33;51.81;94395.69;5129595;27;20237;-50
2023/04/30 05:07:16;;;;;;;10.27;6.20;;;;;;;16.35;51.92;94393.72;5133392;27;20189;-50
2023/04/30 05:09:45;;;;;;;7.57;5.77;;;;;;;16.35;51.98;94390.34;5133869;27;20188;-50
2023/04/30 05:12:11;;;;;;;10.70;6.13;;;;;;;16.35;51.85;94391.13;5133988;27;20699;-50
2023/04/30 05:14:38;;;;;;;11.10;6.23;;;;;;;16.40;51.55;94404.28;5134112;27;20195;-49
2023/04/30 05:17:05;;;;;;;12.00;6.67;;;;;;;16.42;51.51;94399.75;5133862;27;20189;-49
2023/04/30 05:19:32;;;;;;;8.10;6.20;;;;;;;16.32;51.69;94378.63;5133650;27;20623;-51
2023/04/30 05:22:01;;;;;;;7.80;6.17;;;;;;;16.47;51.48;94399.22;5133463;27;20613;-50
2023/04/30 05:24:28;;;;;;;9.17;6.00;;;;;;;16.48;51.55;94399.03;5133743;27;20262;-48
2023/04/30 05:26:56;;;;;;;6.87;5.80;;;;;;;16.46;51.33;94392.47;5133813;27;20195;-49
2023/04/30 05:29:23;;;;;;;6.50;5.50;;;;;;;16.56;51.29;94401.50;5133878;27;20185;-49
2023/04/30 05:31:50;;;;;;;7.57;5.50;;;;;;;16.60;51.27;94394.22;5133362;27;20223;-49
2023/04/30 05:34:16;;;;;;;8.00;5.53;;;;;;;16.66;51.17;94403.78;5133499;27;20676;-49
2023/04/30 05:36:44;;;;;;;10.07;6.13;;;;;;;16.70;51.12;94393.91;5133513;27;20201;-50
2023/04/30 05:39:11;;;;;;;8.90;5.87;;;;;;;16.75;51.06;94401.94;5133566;27;20606;-50
2023/04/30 05:41:37;;;;;;;8.07;6.13;;;;;;;16.80;50.96;94397.03;5133698;27;20180;-49
2023/04/30 05:44:06;;;;;;;7.60;5.67;;;;;;;16.90;50.66;94400.13;5134420;27;20200;-50
2023/04/30 05:46:34;;;;;;;9.47;6.23;;;;;;;16.96;50.61;94399.38;5133950;27;20181;-50
2023/04/30 05:49:00;;;;;;;7.70;5.73;;;;;;;17.03;50.36;94399.44;5133284;27;20637;-50
2023/04/30 05:51:28;;;;;;;9.40;6.20;;;;;;;17.10;50.47;94396.91;5133425;27;20223;-50
2023/04/30 05:53:56;;;;;;;8.27;5.73;;;;;;;17.14;50.50;94387.81;5132877;27;20184;-52
2023/04/30 05:56:23;;;;;;;7.23;5.70;;;;;;;17.24;49.99;94398.66;5133497;27;20526;-52
2023/04/30 05:58:51;;;;;;;7.70;4.87;;;;;;;17.31;50.07;94396.91;5133281;27;20215;-50
2023/04/30 06:01:19;;;;;;;7.87;5.87;;;;;;;17.41;49.91;94407.75;5133119;27;20184;-52
2023/04/30 06:03:47;;;;;;;6.80;5.60;;;;;;;17.46;50.02;94396.84;5132964;27;20282;-49
2023/04/30 06:06:13;;;;;;;8.00;5.50;;;;;;;17.56;49.83;94403.28;5133016;27;20201;-50
2023/04/30 06:08:43;;;;;;;7.40;5.97;;;;;;;17.69;49.65;94412.13;5133179;27;20192;-51
2023/04/30 06:11:11;;;;;;;8.87;6.03;;;;;;;17.79;49.38;94413.44;5133063;27;20300;-50
2023/04/30 06:13:38;;;;;;;7.00;5.30;;;;;;;17.89;49.16;94415.69;5132619;27;20653;-51
2023/04/30 06:16:06;;;;;;;8.60;5.47;;;;;;;17.99;48.86;94410.94;5132912;27;20188;-50
2023/04/30 06:18:34;;;;;;;6.23;5.20;;;;;;;18.17;48.98;94417.41;5132625;27;20412;-49
2023/04/30 06:21:01;;;;;;;6.43;5.00;;;;;;;18.30;48.63;94420.88;5133833;27;20195;-51
2023/04/30 06:23:28;;;;;;;7.80;5.87;;;;;;;18.47;48.57;94415.38;5132775;27;20228;-49
2023/04/30 06:25:55;;;;;;;11.10;6.27;;;;;;;18.62;48.31;94417.84;5132523;27;20708;-50
2023/04/30 06:28:21;;;;;;;10.13;5.87;;;;;;;18.63;48.01;94388.34;5132864;27;20217;-51
2023/04/30 06:30:49;;;;;;;8.47;5.40;;;;;;;18.80;47.91;94393.00;5133202;27;20176;-49
2023/04/30 06:33:16;;;;;;;9.07;5.90;;;;;;;19.05;47.79;94421.00;5132676;27;20184;-49
2023/04/30 06:35:44;;;;;;;9.33;6.23;;;;;;;19.16;47.71;94417.81;5132400;27;20207;-49
2023/04/30 06:38:11;;;;;;;7.23;5.70;;;;;;;19.28;47.68;94429.19;5132687;27;20184;-49
2023/04/30 06:40:38;;;;;;;8.67;5.93;;;;;;;19.42;47.52;94421.41;5132207;27;20665;-49
2023/04/30 06:43:04;;;;;;;5.80;5.07;;;;;;;19.77;47.29;94420.28;5132670;27;20187;-51
2023/04/30 06:45:31;;;;;;;10.07;5.60;;;;;;;20.39;47.54;94418.16;5132081;27;20200;-50
2023/04/30 06:47:58;;;;;;;6.90;6.20;;;;;;;20.97;47.23;94417.31;5132196;27;20624;-50
2023/04/30 06:50:25;;;;;;;7.90;5.57;;;;;;;21.65;46.88;94421.91;5132354;27;20306;-49
2023/04/30 06:52:53;;;;;;;7.80;4.97;;;;;;;22.39;46.41;94430.66;5132222;27;20228;-51
2023/04/30 06:55:20;;;;;;;5.78;4.85;;;;;;;22.96;45.57;94432.00;5132090;27;20192;-50
2023/04/30 06:57:47;;;;;;;8.23;5.00;;;;;;;23.42;44.87;94432.38;5132342;27;20192;-50
2023/04/30 07:00:15;;;;;;;6.65;4.63;;;;;;;23.77;44.33;94428.03;5131606;27;20661;-49
2023/04/30 07:02:42;;;;;;;8.02;5.43;;;;;;;24.00;43.82;94405.56;5131958;27;20239;-50
2023/04/30 07:05:10;;;;;;;7.40;5.43;;;;;;;24.39;43.59;94427.59;5131498;27;20572;-50
2023/04/30 07:07:37;;;;;;;10.63;5.88;;;;;;;24.60;42.90;94425.41;5131789;27;20185;-50
2023/04/30 07:10:06;;;;;;;8.63;5.63;;;;;;;24.68;42.65;94423.22;5131760;27;20196;-50
2023/04/30 07:12:33;;;;;;;7.47;4.70;;;;;;;24.82;42.73;94428.97;5131555;27;20546;-49
2023/04/30 07:14:59;;;;;;;9.07;5.65;;;;;;;24.82;42.41;94425.56;5131502;27;20185;-50
2023/04/30 07:17:26;;;;;;;6.25;5.63;;;;;;;24.48;42.61;94378.38;5131858;27;20192;-53
2023/04/30 07:19:53;;;;;;;8.20;5.40;;;;;;;24.75;42.42;94429.13;5132540;27;20195;-53
2023/04/30 07:22:20;;;;;;;8.90;5.90;;;;;;;24.67;42.86;94433.94;5132975;27;20185;-51
2023/04/30 07:24:47;;;;;;;7.47;5.45;;;;;;;24.58;42.94;94425.66;5131503;27;20693;-50
2023/04/30 07:27:15;;;;;;;8.90;5.28;;;;;;;24.47;42.94;94426.44;5131111;27;20997;-50
2023/04/30 07:29:42;;;;;;;8.23;5.65;;;;;;;24.37;42.72;94428.84;5130796;27;20636;-50
2023/04/30 07:32:08;;;;;;;6.65;5.43;;;;;;;24.23;42.77;94433.50;5131234;27;20227;-51
2023/04/30 07:34:35;;;;;;;9.43;5.70;;;;;;;24.14;42.80;94437.50;5131211;27;20181;-50
2023/04/30 07:37:03;;;;;;;6.60;5.35;;;;;;;24.03;42.68;94436.47;5131111;27;20249;-50
2023/04/30 07:39:31;;;;;;;7.47;5.85;;;;;;;23.96;42.44;94441.81;5132650;27;20184;-50
2023/04/30 07:41:58;;;;;;;8.05;5.88;;;;;;;23.91;42.51;94435.66;5132072;27;20199;-51
2023/04/30 07:44:30;;;;;;;7.65;5.30;;;;;;;23.86;42.30;94432.94;5130991;27;20214;-51
2023/04/30 07:47:01;;;;;;;7.50;5.50;;;;;;;23.83;42.32;94436.00;5131009;27;20241;-51
2023/04/30 07:49:29;;;;;;;8.95;5.93;;;;;;;23.80;42.30;94441.69;5130045;27;20192;-55
2023/04/30 07:51:56;;;;;;;12.43;6.07;;;;;;;23.81;42.36;94440.66;5131244;27;20235;-50
2023/04/30 07:54:24;;;;;;;9.88;5.57;;;;;;;23.85;42.27;94436.56;5131077;27;20227;-50
2023/04/30 07:56:50;;;;;;;5.45;4.93;;;;;;;23.88;42.04;94431.69;5131282;27;20181;-50
2023/04/30 07:59:17;;;;;;;5.72;4.85;;;;;;;24.01;41.88;94435.91;5130812;27;20265;-51
2023/04/30 08:01:45;;;;;;;6.97;4.70;;;;;;;24.16;41.69;94443.28;5131284;27;20193;-51
2023/04/30 08:04:12;;;;;;;7.45;4.85;;;;;;;24.24;41.61;94443.72;5130939;27;20188;-50
2023/04/30 08:06:39;;;;;;;7.22;5.07;;;;;;;24.29;41.63;94443.84;5132772;27;20214;-51
2023/04/30 08:09:10;;;;;;;7.40;4.85;;;;;;;24.31;41.67;94448.03;5133484;27;20195;-51
2023/04/30 08:11:37;;;;;;;7.35;5.28;;;;;;;24.27;41.50;94445.91;5133963;27;20184;-50
2023/04/30 08:14:04;;;;;;;6.10;4.97;;;;;;;24.21;41.47;94449.41;5132942;27;20193;-52
2023/04/30 08:16:31;;;;;;;5.30;4.78;;;;;;;24.12;41.67;94450.78;5134335;27;20397;-50
2023/04/30 08:18:59;;;;;;;6.07;4.70;;;;;;;24.00;41.50;94445.53;5133181;27;20176;-50
2023/04/30 08:21:26;;;;;;;6.28;4.78;;;;;;;23.92;41.63;94445.91;5131754;27;20192;-48
2023/04/30 08:23:53;;;;;;;6.03;4.68;;;;;;;23.84;41.93;94451.47;5130285;27;20252;-49
2023/04/30 08:26:21;;;;;;;5.50;4.97;;;;;;;23.64;41.60;94430.84;5130632;27;20637;-50
2023/04/30 08:28:47;;;;;;;5.57;4.72;;;;;;;23.71;41.69;94454.28;5130548;27;20219;-50
2023/04/30 08:31:14;;;;;;;4.50;4.10;;;;;;;23.68;41.70;94449.50;5130454;27;20192;-52
2023/04/30 08:33:41;;;;;;;6.05;5.00;;;;;;;23.26;41.58;94384.25;5130503;27;20303;-51
2023/04/30 08:36:09;;;;;;;5.70;4.28;;;;;;;23.73;41.40;94441.78;5130354;27;20185;-50
2023/04/30 08:38:36;;;;;;;6.90;4.47;;;;;;;23.85;41.36;94444.41;5130289;27;20202;-51
2023/04/30 08:41:10;;;;;;;8.13;4.45;;;;;;;23.99;41.27;94443.94;5128910;27;20199;-50
2023/04/30 08:43:37;;;;;;;5.63;4.35;;;;;;;24.19;41.10;94446.25;5130256;27;20200;-50
2023/04/30 08:46:05;;;;;;;5.65;4.47;;;;;;;24.59;40.58;94442.91;5130165;28;20191;-52
2023/04/30 08:48:32;;;;;;;4.95;4.20;;;;;;;24.92;40.38;94444.88;5130331;28;20282;-50
2023/04/30 08:51:01;;;;;;;5.45;4.35;;;;;;;25.02;40.10;94418.09;5130136;27;20193;-51
2023/04/30 08:53:31;;;;;;;6.60;4.43;;;;;;;25.41;39.92;94434.00;5129881;28;20307;-52
2023/04/30 08:55:58;;;;;;;4.88;3.60;;;;;;;25.60;39.69;94429.34;5130215;27;20184;-50
2023/04/30 08:58:25;;;;;;;4.20;3.40;;;;;;;25.89;39.55;94435.31;5129838;28;20661;-49
2023/04/30 09:00:54;;;;;;;5.82;4.22;;;;;;;26.13;39.30;94417.59;5130026;27;20631;-50
2023/04/30 09:03:22;;;;;;;4.00;3.60;;;;;;;26.46;39.15;94420.16;5130113;28;20185;-52
2023/04/30 09:05:50;;;;;;;6.53;4.00;;;;;;;26.77;39.04;94429.22;5129800;28;20212;-50
2023/04/30 09:08:18;;;;;;;7.13;4.15;;;;;;;27.01;38.94;94421.06;5129838;28;20640;-51
2023/04/30 09:10:46;;;;;;;4.22;3.65;;;;;;;27.22;38.54;94408.97;5129820;28;20278;-53
2023/04/30 09:13:13;;;;;;;6.30;3.30;;;;;;;27.46;38.01;94409.44;5129621;28;20243;-51
2023/04/30 09:15:44;;;;;;;3.70;3.30;;;;;;;27.68;38.16;94404.13;5129852;28;20239;-52
2023/04/30 09:18:16;;;;;;;5.38;3.40;;;;;;;27.86;37.89;94401.13;5129994;28;20292;-52
2023/04/30 09:20:57;;;;;;;6.47;4.22;;;;;;;28.10;37.24;94406.78;5129802;27;20218;-53
2023/04/30 09:23:25;;;;;;;3.30;3.00;;;;;;;28.30;37.20;94403.50;5129668;28;20224;-50
2023/04/30 09:25:57;;;;;;;4.30;3.58;;;;;;;28.49;36.83;94404.66;5129627;27;20195;-51
2023/04/30 09:28:26;;;;;;;3.83;3.42;;;;;;;28.72;36.45;94395.56;5129498;28;20195;-51
2023/04/30 09:30:53;;;;;;;4.25;3.33;;;;;;;28.90;36.44;94381.13;5129667;28;20184;-51
2023/04/30 09:33:20;;;;;;;4.57;3.08;;;;;;;29.17;36.09;94391.47;5130311;28;20280;-49
2023/04/30 09:35:46;;;;;;;3.95;3.55;;;;;;;29.24;36.11;94388.59;5132745;28;20223;-49
2023/04/30 09:38:27;;;;;;;5.00;3.53;;;;;;;29.31;35.97;94383.84;5129788;28;20547;-51
2023/04/30 09:40:58;;;;;;;5.40;2.80;;;;;;;29.52;35.55;94383.88;5129511;28;20231;-50
2023/04/30 09:43:26;;;;;;;3.63;3.05;;;;;;;29.67;35.22;94384.69;5129597;27;20196;-50
2023/04/30 09:45:52;;;;;;;4.10;2.97;;;;;;;29.83;35.23;94380.19;5129100;27;20672;-50
2023/04/30 09:48:23;;;;;;;8.52;3.53;;;;;;;29.97;34.84;94381.22;5129414;28;20193;-49
2023/04/30 09:50:50;;;;;;;3.80;2.70;;;;;;;30.10;34.67;94377.25;5129250;28;20235;-51
2023/04/30 09:53:19;;;;;;;3.10;2.80;;;;;;;30.21;34.97;94375.41;5132420;27;20231;-50
2023/04/30 09:55:47;;;;;;;3.30;2.90;;;;;;;30.24;35.00;94380.16;5133380;27;20203;-49
2023/04/30 09:58:17;;;;;;;3.05;2.75;;;;;;;30.24;34.42;94375.66;5132639;27;20676;-51
2023/04/30 10:00:49;;;;;;;3.20;2.90;;;;;;;30.22;34.87;94364.59;5132911;27;20567;-50
2023/04/30 10:03:16;;;;;;;3.25;2.95;;;;;;;30.22;34.46;94372.50;5132953;27;20199;-51
2023/04/30 10:05:46;;;;;;;3.97;2.90;;;;;;;30.06;34.41;94347.19;5132928;27;20612;-51
2023/04/30 10:08:16;;;;;;;3.10;2.80;;;;;;;30.06;34.79;94365.66;5132550;27;20199;-51
2023/04/30 10:10:47;;;;;;;2.90;2.70;;;;;;;29.96;34.90;94363.03;5133141;27;20180;-51
2023/04/30 10:13:20;;;;;;;3.60;3.13;;;;;;;29.81;34.70;94366.47;5132333;27;20230;-50
2023/04/30 10:15:51;;;;;;;3.67;2.75;;;;;;;29.65;35.14;94363.06;5132493;27;20180;-50
2023/04/30 10:18:21;;;;;;;4.40;2.88;;;;;;;29.21;35.38;94326.69;5132413;27;20283;-51
2023/04/30 10:20:53;;;;;;;3.53;2.90;;;;;;;29.28;35.14;94365.16;5132777;27;20200;-50
2023/04/30 10:23:21;;;;;;;3.15;2.85;;;;;;;29.03;35.27;94371.19;5132187;27;20317;-51
2023/04/30 10:25:50;;;;;;;3.10;2.83;;;;;;;28.70;35.73;94379.22;5132526;27;20181;-50
2023/04/30 10:28:19;;;;;;;2.80;2.60;;;;;;;28.34;35.85;94398.50;5132506;27;20675;-53
2023/04/30 10:30:46;;;;;;;3.42;2.83;;;;;;;27.91;35.87;94419.56;5134631;27;20584;-51
2023/04/30 10:33:23;;;;;;;4.60;2.90;;;;;;;27.47;36.48;94427.59;5134009;27;20212;-50
2023/04/30 10:35:57;;;;;;;3.80;2.67;;;;;;;27.09;36.47;94432.97;5132572;27;20207;-50
2023/04/30 10:38:26;;;;;;;4.22;2.85;;;;;;;26.70;36.83;94422.56;5132087;27;20210;-50
2023/04/30 10:40:57;;;;;;;4.50;3.47;;;;;;;26.39;37.59;94418.75;5131071;27;20582;-50
2023/04/30 10:43:26;;;;;;;3.33;3.03;;;;;;;26.20;37.97;94410.34;5130649;27;20188;-49
2023/04/30 10:45:53;;;;;;;2.95;2.63;;;;;;;26.14;37.79;94409.50;5132564;27;20192;-49
2023/04/30 10:48:24;;;;;;;3.80;2.97;;;;;;;26.07;38.08;94403.63;5132118;27;20257;-52
2023/04/30 10:50:53;;;;;;;3.13;2.83;;;;;;;25.95;38.20;94392.44;5132197;27;20665;-50
2023/04/30 10:53:21;;;;;;;3.60;2.95;;;;;;;25.84;38.31;94388.09;5131613;27;20223;-51
2023/04/30 10:55:54;;;;;;;3.42;2.78;;;;;;;25.73;38.78;94398.41;5132464;27;20192;-50
2023/04/30 10:58:27;;;;;;;3.22;2.85;;;;;;;25.62;38.77;94391.41;5132007;27;20188;-51
2023/04/30 11:01:03;;;;;;;3.20;2.92;;;;;;;25.57;38.88;94388.72;5132053;27;20253;-52
2023/04/30 11:03:31;;;;;;;5.65;2.63;;;;;;;25.53;39.12;94377.13;5130393;27;20191;-52
2023/04/30 11:06:02;;;;;;;6.03;2.63;;;;;;;25.09;39.08;94289.78;5131858;27;20189;-51
2023/04/30 11:08:36;;;;;;;3.78;3.00;;;;;;;25.84;38.64;94378.41;5131623;27;20192;-52
2023/04/30 11:11:04;;;;;;;3.35;2.45;;;;;;;26.00;38.37;94385.44;5131862;27;20667;-50
2023/04/30 11:13:41;;;;;;;2.70;2.50;;;;;;;26.07;38.34;94374.78;5131176;27;20231;-51
2023/04/30 11:16:09;;;;;;;3.03;2.78;;;;;;;25.84;38.05;94312.91;5131650;27;20628;-52
2023/04/30 11:18:41;;;;;;;3.03;2.83;;;;;;;26.47;37.64;94366.69;5131732;27;20184;-53
2023/04/30 11:21:09;;;;;;;4.00;2.40;;;;;;;26.57;37.70;94378.34;5131559;27;20614;-51
2023/04/30 11:23:37;;;;;;;3.50;2.53;;;;;;;26.60;37.45;94375.19;5131235;27;20227;-50
2023/04/30 11:26:03;;;;;;;3.20;2.58;;;;;;;26.61;37.30;94371.56;5131408;27;20197;-50
2023/04/30 11:28:34;;;;;;;2.80;2.60;;;;;;;26.62;37.58;94370.50;5132381;27;20192;-50
2023/04/30 11:31:03;;;;;;;3.30;3.10;;;;;;;26.64;37.42;94373.66;5133296;27;20194;-51
2023/04/30 11:33:32;;;;;;;2.63;2.40;;;;;;;26.69;37.47;94364.06;5131616;27;20263;-53
2023/04/30 11:36:00;;;;;;;3.17;2.88;;;;;;;26.76;37.35;94367.25;5131506;27;20188;-50